createdAt,value
2023-03-28T00:00:33.760Z,944.91
2023-03-28T00:01:33.764Z,944.91
2023-03-28T00:02:33.792Z,944.99
2023-03-28T00:03:33.789Z,944.91
2023-03-28T00:04:33.743Z,944.91
2023-03-28T00:05:33.749Z,944.92
2023-03-28T00:06:33.700Z,944.93
2023-03-28T00:07:33.683Z,945.01
2023-03-28T00:08:34.336Z,944.93
2023-03-28T00:09:33.662Z,944.94
2023-03-28T00:10:33.719Z,944.96
2023-03-28T00:11:33.679Z,944.91
2023-03-28T00:12:33.640Z,945.00
2023-03-28T00:13:33.635Z,944.94
2023-03-28T00:14:33.666Z,944.92
2023-03-28T00:15:33.627Z,944.96
2023-03-28T00:16:33.794Z,944.93
2023-03-28T00:17:33.638Z,944.96
2023-03-28T00:18:33.577Z,944.96
2023-03-28T00:19:33.569Z,944.97
2023-03-28T00:20:33.595Z,944.98
2023-03-28T00:21:33.545Z,944.96
2023-03-28T00:22:33.553Z,944.97
2023-03-28T00:23:33.529Z,945.02
2023-03-28T00:24:33.515Z,945.05
2023-03-28T00:25:33.504Z,945.05
2023-03-28T00:26:33.519Z,944.98
2023-03-28T00:27:33.513Z,945.04
2023-03-28T00:28:33.502Z,944.99
2023-03-28T00:29:33.469Z,944.99
2023-03-28T00:30:33.453Z,945.05
2023-03-28T00:31:33.595Z,945.04
2023-03-28T00:32:33.455Z,945.06
2023-03-28T00:33:33.422Z,945.05
2023-03-28T00:34:33.431Z,945.11
2023-03-28T00:35:33.440Z,945.12
2023-03-28T00:36:33.440Z,945.09
2023-03-28T00:37:34.401Z,945.11
2023-03-28T00:38:33.373Z,945.08
2023-03-28T00:39:33.391Z,945.15
2023-03-28T00:40:33.375Z,945.14
2023-03-28T00:41:33.392Z,945.16
2023-03-28T00:42:33.370Z,945.15
2023-03-28T00:43:33.348Z,945.13
2023-03-28T00:44:33.304Z,945.13
2023-03-28T00:45:33.300Z,945.11
2023-03-28T00:46:33.475Z,945.12
2023-03-28T00:47:33.544Z,945.14
2023-03-28T00:48:33.299Z,945.16
2023-03-28T00:49:33.258Z,945.17
2023-03-28T00:50:33.252Z,945.18
2023-03-28T00:51:33.243Z,945.20
2023-03-28T00:52:33.250Z,945.17
2023-03-28T00:53:33.223Z,945.18
2023-03-28T00:54:33.212Z,945.13
2023-03-28T00:55:33.228Z,945.14
2023-03-28T00:56:33.208Z,945.14
2023-03-28T00:57:33.247Z,945.15
2023-03-28T00:58:33.163Z,945.18
2023-03-28T00:59:33.214Z,945.19
2023-03-28T01:00:33.161Z,945.18
2023-03-28T01:01:33.228Z,945.13
2023-03-28T01:02:33.229Z,945.12
2023-03-28T01:03:33.232Z,945.17
2023-03-28T01:04:33.107Z,945.19
2023-03-28T01:05:33.128Z,945.22
2023-03-28T01:06:33.077Z,945.24
2023-03-28T01:07:33.075Z,945.25
2023-03-28T01:08:33.140Z,945.19
2023-03-28T01:09:33.064Z,945.21
2023-03-28T01:10:33.064Z,945.21
2023-03-28T01:11:33.054Z,945.21
2023-03-28T01:12:33.020Z,945.20
2023-03-28T01:13:33.019Z,945.22
2023-03-28T01:14:33.010Z,945.23
2023-03-28T01:15:33.805Z,945.23
2023-03-28T01:16:33.093Z,945.23
2023-03-28T01:17:32.997Z,945.24
2023-03-28T01:18:33.151Z,945.27
2023-03-28T01:19:32.953Z,945.32
2023-03-28T01:20:32.953Z,945.35
2023-03-28T01:21:32.931Z,945.34
2023-03-28T01:22:32.950Z,945.33
2023-03-28T01:23:32.932Z,945.38
2023-03-28T01:24:32.912Z,945.37
2023-03-28T01:25:32.925Z,945.40
2023-03-28T01:26:32.888Z,945.43
2023-03-28T01:27:33.450Z,945.42
2023-03-28T01:28:32.857Z,945.39
2023-03-28T01:29:32.860Z,945.39
2023-03-28T01:30:32.883Z,945.38
2023-03-28T01:31:32.885Z,945.42
2023-03-28T01:32:32.893Z,945.45
2023-03-28T01:33:32.873Z,945.39
2023-03-28T01:34:32.812Z,945.46
2023-03-28T01:35:32.827Z,945.49
2023-03-28T01:36:34.464Z,945.45
2023-03-28T01:37:32.774Z,945.48
2023-03-28T01:38:32.768Z,945.51
2023-03-28T01:39:32.770Z,945.53
2023-03-28T01:40:32.732Z,945.54
2023-03-28T01:41:32.728Z,945.50
2023-03-28T01:42:32.737Z,945.55
2023-03-28T01:43:32.700Z,945.56
2023-03-28T01:44:32.745Z,945.55
2023-03-28T01:45:32.725Z,945.55
2023-03-28T01:46:32.696Z,945.55
2023-03-28T01:47:32.720Z,945.55
2023-03-28T01:48:32.664Z,945.54
2023-03-28T01:49:32.673Z,945.59
2023-03-28T01:50:32.691Z,945.51
2023-03-28T01:51:32.631Z,945.54
2023-03-28T01:52:32.640Z,945.55
2023-03-28T01:53:32.621Z,945.56
2023-03-28T01:54:32.594Z,945.62
2023-03-28T01:55:33.367Z,945.55
2023-03-28T01:56:33.627Z,945.59
2023-03-28T01:57:32.637Z,945.59
2023-03-28T01:58:32.649Z,945.56
2023-03-28T01:59:32.605Z,945.57
2023-03-28T02:00:32.632Z,945.62
2023-03-28T02:01:32.727Z,945.59
2023-03-28T02:02:32.664Z,945.65
2023-03-28T02:03:32.586Z,945.63
2023-03-28T02:04:32.498Z,945.65
2023-03-28T02:05:32.500Z,945.68
2023-03-28T02:06:32.500Z,945.58
2023-03-28T02:07:32.478Z,945.60
2023-03-28T02:08:32.453Z,945.54
2023-03-28T02:09:32.476Z,945.55
2023-03-28T02:10:32.429Z,945.62
2023-03-28T02:11:32.448Z,945.66
2023-03-28T02:12:32.429Z,945.62
2023-03-28T02:13:32.554Z,945.64
2023-03-28T02:14:32.404Z,945.61
2023-03-28T02:15:32.442Z,945.63
2023-03-28T02:16:32.495Z,945.65
2023-03-28T02:17:32.377Z,945.65
2023-03-28T02:18:32.414Z,945.64
2023-03-28T02:19:32.376Z,945.68
2023-03-28T02:20:32.357Z,945.65
2023-03-28T02:21:32.359Z,945.66
2023-03-28T02:22:32.326Z,945.62
2023-03-28T02:23:32.390Z,945.68
2023-03-28T02:24:32.323Z,945.74
2023-03-28T02:25:32.302Z,945.72
2023-03-28T02:26:32.278Z,945.74
2023-03-28T02:27:32.274Z,945.72
2023-03-28T02:28:32.278Z,945.74
2023-03-28T02:29:32.356Z,945.72
2023-03-28T02:30:32.368Z,945.74
2023-03-28T02:31:32.324Z,945.71
2023-03-28T02:32:32.257Z,945.72
2023-03-28T02:33:32.225Z,945.75
2023-03-28T02:34:32.203Z,945.72
2023-03-28T02:35:32.250Z,945.69
2023-03-28T02:36:32.244Z,945.73
2023-03-28T02:37:32.188Z,945.77
2023-03-28T02:38:32.163Z,945.71
2023-03-28T02:39:32.237Z,945.71
2023-03-28T02:40:32.143Z,945.72
2023-03-28T02:41:32.138Z,945.72
2023-03-28T02:42:32.134Z,945.76
2023-03-28T02:43:32.118Z,945.78
2023-03-28T02:44:32.309Z,945.76
2023-03-28T02:45:32.171Z,945.75
2023-03-28T02:46:32.307Z,945.78
2023-03-28T02:47:32.136Z,945.75
2023-03-28T02:48:32.139Z,945.76
2023-03-28T02:49:43.795Z,945.76
2023-03-28T02:50:33.050Z,945.74
2023-03-28T02:51:32.089Z,945.73
2023-03-28T02:52:32.031Z,945.75
2023-03-28T02:53:32.017Z,945.73
2023-03-28T02:54:32.057Z,945.76
2023-03-28T02:55:32.043Z,945.76
2023-03-28T02:56:31.988Z,945.74
2023-03-28T02:57:31.984Z,945.76
2023-03-28T02:58:31.976Z,945.77
2023-03-28T02:59:31.964Z,945.78
2023-03-28T03:00:32.055Z,945.75
2023-03-28T03:01:31.986Z,945.78
2023-03-28T03:02:32.007Z,945.81
2023-03-28T03:03:31.968Z,945.80
2023-03-28T03:04:32.092Z,945.83
2023-03-28T03:05:31.986Z,945.83
2023-03-28T03:06:31.884Z,945.86
2023-03-28T03:07:31.899Z,945.86
2023-03-28T03:08:31.911Z,945.87
2023-03-28T03:09:31.854Z,945.83
2023-03-28T03:10:31.858Z,945.83
2023-03-28T03:11:31.866Z,945.84
2023-03-28T03:12:31.824Z,945.87
2023-03-28T03:13:31.849Z,945.92
2023-03-28T03:14:31.808Z,945.96
2023-03-28T03:15:31.816Z,945.98
2023-03-28T03:16:31.963Z,945.97
2023-03-28T03:17:31.861Z,946.02
2023-03-28T03:18:31.770Z,946.01
2023-03-28T03:19:31.797Z,946.04
2023-03-28T03:20:39.291Z,946.07
2023-03-28T03:21:31.744Z,946.12
2023-03-28T03:22:31.726Z,946.09
2023-03-28T03:23:31.732Z,946.04
2023-03-28T03:24:31.765Z,946.06
2023-03-28T03:25:31.710Z,946.10
2023-03-28T03:26:31.712Z,946.17
2023-03-28T03:27:31.684Z,946.06
2023-03-28T03:28:31.675Z,946.11
2023-03-28T03:29:39.027Z,946.10
2023-03-28T03:30:32.679Z,946.07
2023-03-28T03:31:31.666Z,946.11
2023-03-28T03:32:31.737Z,946.12
2023-03-28T03:33:32.657Z,946.07
2023-03-28T03:34:31.620Z,945.97
2023-03-28T03:35:31.642Z,945.99
2023-03-28T03:36:31.637Z,946.02
2023-03-28T03:37:31.610Z,945.96
2023-03-28T03:38:31.567Z,946.05
2023-03-28T03:39:31.631Z,946.02
2023-03-28T03:40:31.577Z,946.08
2023-03-28T03:41:31.542Z,946.05
2023-03-28T03:42:31.552Z,946.05
2023-03-28T03:43:31.532Z,946.11
2023-03-28T03:44:31.539Z,946.12
2023-03-28T03:45:31.495Z,946.16
2023-03-28T03:46:31.572Z,946.21
2023-03-28T03:47:31.559Z,946.23
2023-03-28T03:48:31.463Z,946.28
2023-03-28T03:49:31.467Z,946.22
2023-03-28T03:50:31.495Z,946.22
2023-03-28T03:51:31.501Z,946.23
2023-03-28T03:52:31.488Z,946.20
2023-03-28T03:53:31.442Z,946.18
2023-03-28T03:54:31.435Z,946.18
2023-03-28T03:55:31.426Z,946.17
2023-03-28T03:56:31.387Z,946.21
2023-03-28T03:57:31.396Z,946.21
2023-03-28T03:58:31.371Z,946.18
2023-03-28T03:59:31.413Z,946.15
2023-03-28T04:00:31.372Z,946.19
2023-03-28T04:01:31.371Z,946.23
2023-03-28T04:02:31.444Z,946.17
2023-03-28T04:03:31.346Z,946.15
2023-03-28T04:04:31.336Z,946.14
2023-03-28T04:05:31.352Z,946.15
2023-03-28T04:06:31.348Z,946.19
2023-03-28T04:07:31.271Z,946.16
2023-03-28T04:08:31.270Z,946.16
2023-03-28T04:09:31.255Z,946.21
2023-03-28T04:10:31.253Z,946.24
2023-03-28T04:11:31.308Z,946.21
2023-03-28T04:12:31.258Z,946.20
2023-03-28T04:13:31.232Z,946.19
2023-03-28T04:14:31.246Z,946.27
2023-03-28T04:15:31.278Z,946.26
2023-03-28T04:16:41.181Z,946.31
2023-03-28T04:17:32.232Z,946.31
2023-03-28T04:18:31.184Z,946.32
2023-03-28T04:19:31.222Z,946.33
2023-03-28T04:20:31.153Z,946.36
2023-03-28T04:21:31.142Z,946.36
2023-03-28T04:22:31.137Z,946.30
2023-03-28T04:23:31.158Z,946.36
2023-03-28T04:24:31.150Z,946.39
2023-03-28T04:25:31.099Z,946.41
2023-03-28T04:26:31.084Z,946.40
2023-03-28T04:27:31.182Z,946.34
2023-03-28T04:28:31.110Z,946.38
2023-03-28T04:29:31.078Z,946.41
2023-03-28T04:30:31.047Z,946.37
2023-03-28T04:31:31.072Z,946.39
2023-03-28T04:32:31.091Z,946.36
2023-03-28T04:33:31.055Z,946.41
2023-03-28T04:34:31.056Z,946.43
2023-03-28T04:35:31.084Z,946.46
2023-03-28T04:36:31.039Z,946.46
2023-03-28T04:37:30.985Z,946.44
2023-03-28T04:38:30.969Z,946.51
2023-03-28T04:39:30.974Z,946.50
2023-03-28T04:40:30.964Z,946.52
2023-03-28T04:41:31.127Z,946.51
2023-03-28T04:42:30.989Z,946.50
2023-03-28T04:43:30.947Z,946.53
2023-03-28T04:44:30.930Z,946.52
2023-03-28T04:45:30.964Z,946.51
2023-03-28T04:46:31.977Z,946.52
2023-03-28T04:47:30.938Z,946.51
2023-03-28T04:48:31.432Z,946.61
2023-03-28T04:49:30.888Z,946.65
2023-03-28T04:50:30.877Z,946.63
2023-03-28T04:51:30.846Z,946.65
2023-03-28T04:52:30.863Z,946.61
2023-03-28T04:53:30.867Z,946.62
2023-03-28T04:54:30.877Z,946.60
2023-03-28T04:55:30.817Z,946.58
2023-03-28T04:56:30.806Z,946.62
2023-03-28T04:57:30.804Z,946.63
2023-03-28T04:58:30.788Z,946.62
2023-03-28T04:59:30.785Z,946.63
2023-03-28T05:00:30.972Z,946.67
2023-03-28T05:01:30.824Z,946.70
2023-03-28T05:02:30.855Z,946.67
2023-03-28T05:03:30.811Z,946.72
2023-03-28T05:04:30.715Z,946.77
2023-03-28T05:05:30.701Z,946.70
2023-03-28T05:06:30.714Z,946.71
2023-03-28T05:07:30.699Z,946.75
2023-03-28T05:08:30.665Z,946.78
2023-03-28T05:09:30.667Z,946.73
2023-03-28T05:10:30.651Z,946.76
2023-03-28T05:11:30.681Z,946.75
2023-03-28T05:12:30.631Z,946.77
2023-03-28T05:13:30.738Z,946.75
2023-03-28T05:14:30.613Z,946.74
2023-03-28T05:15:30.630Z,946.77
2023-03-28T05:16:30.664Z,946.78
2023-03-28T05:17:30.925Z,946.74
2023-03-28T05:18:30.574Z,946.73
2023-03-28T05:19:30.636Z,946.76
2023-03-28T05:20:30.549Z,946.75
2023-03-28T05:21:30.609Z,946.78
2023-03-28T05:22:30.597Z,946.77
2023-03-28T05:23:30.689Z,946.75
2023-03-28T05:24:30.505Z,946.83
2023-03-28T05:25:30.488Z,946.81
2023-03-28T05:26:30.485Z,946.83
2023-03-28T05:27:30.493Z,946.81
2023-03-28T05:28:30.522Z,946.82
2023-03-28T05:29:30.510Z,946.84
2023-03-28T05:30:30.462Z,946.85
2023-03-28T05:31:30.508Z,946.88
2023-03-28T05:32:30.530Z,946.87
2023-03-28T05:33:30.420Z,946.88
2023-03-28T05:34:30.461Z,946.86
2023-03-28T05:35:30.562Z,946.90
2023-03-28T05:36:30.441Z,946.90
2023-03-28T05:37:30.392Z,946.92
2023-03-28T05:38:30.421Z,946.93
2023-03-28T05:39:30.365Z,946.91
2023-03-28T05:40:30.388Z,946.99
2023-03-28T05:41:30.373Z,946.97
2023-03-28T05:42:30.347Z,946.97
2023-03-28T05:43:30.326Z,946.96
2023-03-28T05:44:30.387Z,947.00
2023-03-28T05:45:30.346Z,946.97
2023-03-28T05:46:30.301Z,946.99
2023-03-28T05:47:30.392Z,946.97
2023-03-28T05:48:30.340Z,946.99
2023-03-28T05:49:30.281Z,946.94
2023-03-28T05:50:30.251Z,946.97
2023-03-28T05:51:30.315Z,946.99
2023-03-28T05:52:30.271Z,947.03
2023-03-28T05:53:30.286Z,947.04
2023-03-28T05:54:30.293Z,947.07
2023-03-28T05:55:30.298Z,947.09
2023-03-28T05:56:30.280Z,947.07
2023-03-28T05:57:30.207Z,947.07
2023-03-28T05:58:30.295Z,947.08
2023-03-28T05:59:30.187Z,947.05
2023-03-28T06:00:30.196Z,947.11
2023-03-28T06:01:30.192Z,947.07
2023-03-28T06:02:30.166Z,947.11
2023-03-28T06:03:30.176Z,947.14
2023-03-28T06:04:30.327Z,947.08
2023-03-28T06:05:30.254Z,947.10
2023-03-28T06:06:30.144Z,947.05
2023-03-28T06:07:41.354Z,947.07
2023-03-28T06:08:31.080Z,947.13
2023-03-28T06:09:30.209Z,947.10
2023-03-28T06:10:30.077Z,947.12
2023-03-28T06:11:30.076Z,947.11
2023-03-28T06:12:30.087Z,947.11
2023-03-28T06:13:30.197Z,947.15
2023-03-28T06:14:30.029Z,947.15
2023-03-28T06:15:30.161Z,947.13
2023-03-28T06:16:35.018Z,947.16
2023-03-28T06:17:30.074Z,947.19
2023-03-28T06:18:29.982Z,947.18
2023-03-28T06:19:30.117Z,947.16
2023-03-28T06:20:30.036Z,947.11
2023-03-28T06:21:30.012Z,947.09
2023-03-28T06:22:29.934Z,947.11
2023-03-28T06:23:30.002Z,947.14
2023-03-28T06:24:30.121Z,947.15
2023-03-28T06:25:30.123Z,947.12
2023-03-28T06:26:29.917Z,947.18
2023-03-28T06:27:30.023Z,947.20
2023-03-28T06:28:29.887Z,947.16
2023-03-28T06:29:30.520Z,947.27
2023-03-28T06:30:29.869Z,947.27
2023-03-28T06:31:29.915Z,947.29
2023-03-28T06:32:29.905Z,947.26
2023-03-28T06:33:30.042Z,947.25
2023-03-28T06:34:29.851Z,947.27
2023-03-28T06:35:29.931Z,947.26
2023-03-28T06:36:29.821Z,947.28
2023-03-28T06:37:29.997Z,947.25
2023-03-28T06:38:29.848Z,947.26
2023-03-28T06:39:29.808Z,947.29
2023-03-28T06:40:29.844Z,947.31
2023-03-28T06:41:29.860Z,947.30
2023-03-28T06:42:29.755Z,947.37
2023-03-28T06:43:29.833Z,947.31
2023-03-28T06:44:29.860Z,947.35
2023-03-28T06:45:29.859Z,947.28
2023-03-28T06:46:34.497Z,947.34
2023-03-28T06:47:29.813Z,947.38
2023-03-28T06:48:29.842Z,947.43
2023-03-28T06:49:29.859Z,947.42
2023-03-28T06:50:29.669Z,947.42
2023-03-28T06:51:29.721Z,947.40
2023-03-28T06:52:29.631Z,947.41
2023-03-28T06:53:29.711Z,947.37
2023-03-28T06:54:29.695Z,947.38
2023-03-28T06:55:29.743Z,947.42
2023-03-28T06:56:29.966Z,947.38
2023-03-28T06:57:29.627Z,947.42
2023-03-28T06:58:29.649Z,947.43
2023-03-28T06:59:29.733Z,947.45
2023-03-28T07:00:29.672Z,947.43
2023-03-28T07:01:29.639Z,947.44
2023-03-28T07:02:29.728Z,947.41
2023-03-28T07:03:29.823Z,947.36
2023-03-28T07:04:29.662Z,947.34
2023-03-28T07:05:29.614Z,947.41
2023-03-28T07:06:29.697Z,947.38
2023-03-28T07:07:29.565Z,947.38
2023-03-28T07:08:29.533Z,947.40
2023-03-28T07:09:29.466Z,947.41
2023-03-28T07:10:29.480Z,947.48
2023-03-28T07:11:29.484Z,947.42
2023-03-28T07:12:29.421Z,947.38
2023-03-28T07:13:29.470Z,947.43
2023-03-28T07:14:29.511Z,947.40
2023-03-28T07:15:29.396Z,947.45
2023-03-28T07:16:29.467Z,947.48
2023-03-28T07:17:30.460Z,947.47
2023-03-28T07:18:29.381Z,947.47
2023-03-28T07:19:29.390Z,947.49
2023-03-28T07:20:29.542Z,947.51
2023-03-28T07:21:29.401Z,947.49
2023-03-28T07:22:29.350Z,947.51
2023-03-28T07:23:29.392Z,947.55
2023-03-28T07:24:29.326Z,947.50
2023-03-28T07:25:29.436Z,947.57
2023-03-28T07:26:29.493Z,947.55
2023-03-28T07:27:29.606Z,947.58
2023-03-28T07:28:29.287Z,947.53
2023-03-28T07:29:29.282Z,947.57
2023-03-28T07:30:29.251Z,947.62
2023-03-28T07:31:29.317Z,947.55
2023-03-28T07:32:35.868Z,947.50
2023-03-28T07:33:35.853Z,947.43
2023-03-28T07:34:30.277Z,947.45
2023-03-28T07:35:29.303Z,947.44
2023-03-28T07:36:29.199Z,947.45
2023-03-28T07:37:29.222Z,947.45
2023-03-28T07:38:29.211Z,947.43
2023-03-28T07:39:29.228Z,947.47
2023-03-28T07:40:29.235Z,947.46
2023-03-28T07:41:29.133Z,947.44
2023-03-28T07:42:29.322Z,947.49
2023-03-28T07:43:29.107Z,947.43
2023-03-28T07:44:29.190Z,947.41
2023-03-28T07:45:29.163Z,947.44
2023-03-28T07:46:33.937Z,947.40
2023-03-28T07:47:29.470Z,947.43
2023-03-28T07:48:29.150Z,947.47
2023-03-28T07:49:29.512Z,947.47
2023-03-28T07:50:29.066Z,947.40
2023-03-28T07:51:29.013Z,947.42
2023-03-28T07:52:29.084Z,947.42
2023-03-28T07:53:29.025Z,947.39
2023-03-28T07:54:29.038Z,947.46
2023-03-28T07:55:28.994Z,947.45
2023-03-28T07:56:29.103Z,947.47
2023-03-28T07:57:28.957Z,947.48
2023-03-28T07:58:29.012Z,947.42
2023-03-28T07:59:29.034Z,947.36
2023-03-28T08:00:28.949Z,947.43
2023-03-28T08:01:28.931Z,947.45
2023-03-28T08:02:29.440Z,947.42
2023-03-28T08:03:28.981Z,947.46
2023-03-28T08:04:28.927Z,947.47
2023-03-28T08:05:29.105Z,947.37
2023-03-28T08:06:32.338Z,947.38
2023-03-28T08:07:28.954Z,947.34
2023-03-28T08:08:28.869Z,947.37
2023-03-28T08:09:28.863Z,947.29
2023-03-28T08:10:28.841Z,947.34
2023-03-28T08:11:28.854Z,947.29
2023-03-28T08:12:28.816Z,947.30
2023-03-28T08:13:28.783Z,947.31
2023-03-28T08:14:28.782Z,947.35
2023-03-28T08:15:28.779Z,947.34
2023-03-28T08:16:33.537Z,947.35
2023-03-28T08:17:28.848Z,947.38
2023-03-28T08:18:28.755Z,947.36
2023-03-28T08:19:28.725Z,947.34
2023-03-28T08:20:28.739Z,947.34
2023-03-28T08:21:36.258Z,947.38
2023-03-28T08:22:28.693Z,947.35
2023-03-28T08:23:28.761Z,947.35
2023-03-28T08:24:35.160Z,947.37
2023-03-28T08:25:29.660Z,947.33
2023-03-28T08:26:28.643Z,947.37
2023-03-28T08:27:28.665Z,947.34
2023-03-28T08:28:28.676Z,947.36
2023-03-28T08:29:28.625Z,947.31
2023-03-28T08:30:28.604Z,947.34
2023-03-28T08:31:29.227Z,947.27
2023-03-28T08:32:28.650Z,947.25
2023-03-28T08:33:28.595Z,947.26
2023-03-28T08:34:28.597Z,947.30
2023-03-28T08:35:28.603Z,947.28
2023-03-28T08:36:28.554Z,947.32
2023-03-28T08:37:28.683Z,947.29
2023-03-28T08:38:28.528Z,947.21
2023-03-28T08:39:28.505Z,947.24
2023-03-28T08:40:28.495Z,947.26
2023-03-28T08:41:28.797Z,947.26
2023-03-28T08:42:28.663Z,947.26
2023-03-28T08:43:28.501Z,947.23
2023-03-28T08:44:28.456Z,947.24
2023-03-28T08:45:28.500Z,947.20
2023-03-28T08:46:28.497Z,947.22
2023-03-28T08:47:28.420Z,947.24
2023-03-28T08:48:28.415Z,947.20
2023-03-28T08:49:28.401Z,947.21
2023-03-28T08:50:28.396Z,947.26
2023-03-28T08:51:28.414Z,947.12
2023-03-28T08:52:28.373Z,947.14
2023-03-28T08:53:28.379Z,947.13
2023-03-28T08:54:28.494Z,947.16
2023-03-28T08:55:28.392Z,947.13
2023-03-28T08:56:28.346Z,947.15
2023-03-28T08:57:28.402Z,947.18
2023-03-28T08:58:28.321Z,947.14
2023-03-28T08:59:28.378Z,947.15
2023-03-28T09:00:28.326Z,947.13
2023-03-28T09:01:28.310Z,947.12
2023-03-28T09:02:28.475Z,947.17
2023-03-28T09:03:28.317Z,947.08
2023-03-28T09:04:28.286Z,947.07
2023-03-28T09:05:28.275Z,946.81
2023-03-28T09:06:28.227Z,946.94
2023-03-28T09:07:28.229Z,947.17
2023-03-28T09:08:28.221Z,947.04
2023-03-28T09:09:28.188Z,947.06
2023-03-28T09:10:28.303Z,946.87
2023-03-28T09:11:28.973Z,946.97
2023-03-28T09:12:28.183Z,946.94
2023-03-28T09:13:28.172Z,947.02
2023-03-28T09:14:28.153Z,946.98
2023-03-28T09:15:28.199Z,946.99
2023-03-28T09:16:28.223Z,947.06
2023-03-28T09:17:28.177Z,947.08
2023-03-28T09:18:28.129Z,947.09
2023-03-28T09:19:33.955Z,947.07
2023-03-28T09:20:29.100Z,947.11
2023-03-28T09:21:28.062Z,947.15
2023-03-28T09:22:28.054Z,947.12
2023-03-28T09:23:28.101Z,947.15
2023-03-28T09:24:28.243Z,947.22
2023-03-28T09:25:28.028Z,947.06
2023-03-28T09:26:28.033Z,947.07
2023-03-28T09:27:28.048Z,947.11
2023-03-28T09:28:28.051Z,947.20
2023-03-28T09:29:28.052Z,947.23
2023-03-28T09:30:27.965Z,947.36
2023-03-28T09:31:28.132Z,947.24
2023-03-28T09:32:28.090Z,947.04
2023-03-28T09:33:27.953Z,947.06
2023-03-28T09:34:28.102Z,947.15
2023-03-28T09:35:27.926Z,947.14
2023-03-28T09:36:37.451Z,947.20
2023-03-28T09:37:29.030Z,947.17
2023-03-28T09:38:27.970Z,947.23
2023-03-28T09:39:27.906Z,947.33
2023-03-28T09:40:28.485Z,947.31
2023-03-28T09:41:27.862Z,947.30
2023-03-28T09:42:28.012Z,947.46
2023-03-28T09:43:38.480Z,947.20
2023-03-28T09:44:28.051Z,947.42
2023-03-28T09:45:27.825Z,947.22
2023-03-28T09:46:27.876Z,947.22
2023-03-28T09:47:28.017Z,947.19
2023-03-28T09:48:27.897Z,947.32
2023-03-28T09:49:27.878Z,947.35
2023-03-28T09:50:27.763Z,947.40
2023-03-28T09:51:27.813Z,947.29
2023-03-28T09:52:27.774Z,947.36
2023-03-28T09:53:27.735Z,947.08
2023-03-28T09:54:27.787Z,947.23
2023-03-28T09:55:27.733Z,947.21
2023-03-28T09:56:27.733Z,947.29
2023-03-28T09:57:27.850Z,947.30
2023-03-28T09:58:27.671Z,947.31
2023-03-28T09:59:28.507Z,947.30
2023-03-28T10:00:27.706Z,947.40
2023-03-28T10:01:28.179Z,947.51
2023-03-28T10:02:27.670Z,947.45
2023-03-28T10:03:27.645Z,947.41
2023-03-28T10:04:27.723Z,947.30
2023-03-28T10:05:27.607Z,947.34
2023-03-28T10:06:27.651Z,947.37
2023-03-28T10:07:27.637Z,947.23
2023-03-28T10:08:27.564Z,947.21
2023-03-28T10:09:27.561Z,947.18
2023-03-28T10:10:27.576Z,947.21
2023-03-28T10:11:27.544Z,946.90
2023-03-28T10:12:27.551Z,946.98
2023-03-28T10:13:27.520Z,947.01
2023-03-28T10:14:27.534Z,947.04
2023-03-28T10:15:27.536Z,947.26
2023-03-28T10:16:27.616Z,947.24
2023-03-28T10:17:27.514Z,947.17
2023-03-28T10:18:27.502Z,947.21
2023-03-28T10:19:27.480Z,947.18
2023-03-28T10:20:27.431Z,947.19
2023-03-28T10:21:27.452Z,947.19
2023-03-28T10:22:27.421Z,947.17
2023-03-28T10:23:27.410Z,947.21
2023-03-28T10:24:27.418Z,947.21
2023-03-28T10:25:27.451Z,947.13
2023-03-28T10:26:27.427Z,947.17
2023-03-28T10:27:27.402Z,947.07
2023-03-28T10:28:27.360Z,946.84
2023-03-28T10:29:27.369Z,946.77
2023-03-28T10:30:27.407Z,946.95
2023-03-28T10:31:27.361Z,946.97
2023-03-28T10:32:27.390Z,946.75
2023-03-28T10:33:27.318Z,946.98
2023-03-28T10:34:27.301Z,947.04
2023-03-28T10:35:27.401Z,946.93
2023-03-28T10:36:27.272Z,946.86
2023-03-28T10:37:27.338Z,946.80
2023-03-28T10:38:27.281Z,946.65
2023-03-28T10:39:27.272Z,946.65
2023-03-28T10:40:27.345Z,946.69
2023-03-28T10:41:27.243Z,946.67
2023-03-28T10:42:27.249Z,946.72
2023-03-28T10:43:27.234Z,946.66
2023-03-28T10:44:27.256Z,946.74
2023-03-28T10:45:27.189Z,946.72
2023-03-28T10:46:27.197Z,946.71
2023-03-28T10:47:27.324Z,946.73
2023-03-28T10:48:27.195Z,946.79
2023-03-28T10:49:27.140Z,946.65
2023-03-28T10:50:27.141Z,946.78
2023-03-28T10:51:27.165Z,946.88
2023-03-28T10:52:27.106Z,946.80
2023-03-28T10:53:27.143Z,946.84
2023-03-28T10:54:27.083Z,946.84
2023-03-28T10:55:27.101Z,946.82
2023-03-28T10:56:27.063Z,946.87
2023-03-28T10:57:27.085Z,946.49
2023-03-28T10:58:27.114Z,946.52
2023-03-28T10:59:27.062Z,946.82
2023-03-28T11:00:27.069Z,946.82
2023-03-28T11:01:27.135Z,946.86
2023-03-28T11:02:27.163Z,946.78
2023-03-28T11:03:27.080Z,946.85
2023-03-28T11:04:27.143Z,946.79
2023-03-28T11:05:26.983Z,946.76
2023-03-28T11:06:27.043Z,946.77
2023-03-28T11:07:28.862Z,946.70
2023-03-28T11:08:26.946Z,946.69
2023-03-28T11:09:27.005Z,946.57
2023-03-28T11:10:26.930Z,946.56
2023-03-28T11:11:26.911Z,946.57
2023-03-28T11:12:29.175Z,946.56
2023-03-28T11:13:26.932Z,946.55
2023-03-28T11:14:26.922Z,946.49
2023-03-28T11:15:26.965Z,946.15
2023-03-28T11:16:26.888Z,945.99
2023-03-28T11:17:26.874Z,946.03
2023-03-28T11:18:28.797Z,946.00
2023-03-28T11:19:26.860Z,946.05
2023-03-28T11:20:26.826Z,946.11
2023-03-28T11:21:26.811Z,946.05
2023-03-28T11:22:26.794Z,946.07
2023-03-28T11:23:26.834Z,946.04
2023-03-28T11:24:26.765Z,946.07
2023-03-28T11:25:26.804Z,946.15
2023-03-28T11:26:26.750Z,946.07
2023-03-28T11:27:26.740Z,946.06
2023-03-28T11:28:26.736Z,946.04
2023-03-28T11:29:36.865Z,946.13
2023-03-28T11:30:27.705Z,946.15
2023-03-28T11:31:26.741Z,946.11
2023-03-28T11:32:26.702Z,946.16
2023-03-28T11:33:26.681Z,946.21
2023-03-28T11:34:26.679Z,946.21
2023-03-28T11:35:26.826Z,946.23
2023-03-28T11:36:26.678Z,946.25
2023-03-28T11:37:26.632Z,946.23
2023-03-28T11:38:26.620Z,946.21
2023-03-28T11:39:26.678Z,946.26
2023-03-28T11:40:27.079Z,946.21
2023-03-28T11:41:26.590Z,946.16
2023-03-28T11:42:26.569Z,946.20
2023-03-28T11:43:26.564Z,946.47
2023-03-28T11:44:26.550Z,946.38
2023-03-28T11:45:41.923Z,946.30
2023-03-28T11:46:27.701Z,946.13
2023-03-28T11:47:26.565Z,946.10
2023-03-28T11:48:26.669Z,946.11
2023-03-28T11:49:26.555Z,946.13
2023-03-28T11:50:26.488Z,946.16
2023-03-28T11:51:26.521Z,946.15
2023-03-28T11:52:26.463Z,946.14
2023-03-28T11:53:26.468Z,946.19
2023-03-28T11:54:26.467Z,946.23
2023-03-28T11:55:26.490Z,946.03
2023-03-28T11:56:26.504Z,946.11
2023-03-28T11:57:26.480Z,946.08
2023-03-28T11:58:26.618Z,946.05
2023-03-28T11:59:26.397Z,946.07
2023-03-28T12:00:33.810Z,946.11
2023-03-28T12:01:27.442Z,946.06
2023-03-28T12:02:26.467Z,946.11
2023-03-28T12:03:26.454Z,946.12
2023-03-28T12:04:26.491Z,946.16
2023-03-28T12:05:26.332Z,946.06
2023-03-28T12:06:26.325Z,946.10
2023-03-28T12:07:26.355Z,946.07
2023-03-28T12:08:26.368Z,946.08
2023-03-28T12:09:26.279Z,946.03
2023-03-28T12:10:26.360Z,946.06
2023-03-28T12:11:26.299Z,946.06
2023-03-28T12:12:26.254Z,946.15
2023-03-28T12:13:26.311Z,946.07
2023-03-28T12:14:26.276Z,946.05
2023-03-28T12:15:26.244Z,946.01
2023-03-28T12:16:27.119Z,946.12
2023-03-28T12:17:26.219Z,946.03
2023-03-28T12:18:26.220Z,945.99
2023-03-28T12:19:26.210Z,946.04
2023-03-28T12:20:26.204Z,945.96
2023-03-28T12:21:26.223Z,946.11
2023-03-28T12:22:26.146Z,946.06
2023-03-28T12:23:26.144Z,945.92
2023-03-28T12:24:26.165Z,946.01
2023-03-28T12:25:26.142Z,946.00
2023-03-28T12:26:26.101Z,945.69
2023-03-28T12:27:26.141Z,945.94
2023-03-28T12:28:26.090Z,945.95